Roundhead, Ohio
Current Conditions -  °F | °C
As of 6:53 AM on Saturday 25 Oct 2014 (Local Time) from KAOH Reporting Station
Overcast Overcast  
Wind Chill: 53°   Ceiling: 6000
Heat Index: 53°   Visibility: 7mi
Dew Point: 48°   Wind: 8mph
Humidity: 83%   Direction: 200°SSW
Pressure: 29.93"   Gusts: NA
Location:  40.56°N, 83.84°W
Report Text: KAOH 251053Z AUTO 20007KT 7SM SCT044 OVC060 12/09 A2993 RMK AO2 SLP135 T01170089
Loading
Personal Weather Stations






























Interactive Weather Map
Tropical Storm Tracking
New forecast layout! Learn more

10-Day Weather Forecast

Advertisements
Track Severe Weather on mobile